Ada, Minnesota
Current Conditions -  °F | °C
As of 10:15 AM on Sunday 23 Nov 2014 (Local Time) from K3N8 Reporting Station
Overcast Overcast  
Wind Chill: 29°   Ceiling: 5500
Heat Index: 35°   Visibility: 7mi
Dew Point: 32°   Wind: 6mph
Humidity: 92%   Direction: 200°SSW
Pressure: 29.42"   Gusts: NA
Location:  47.3°N, 96.52°W
Report Text: K3N8 231615Z AUTO 20005KT 7SM OVC055 01/00 A2942 RMK AO2 T00140002
Loading
Personal Weather Stations






























Interactive Weather Map New forecast layout! Learn more

10-Day Weather Forecast

Advertisements
Track Severe Weather on mobile